sensor_id;sensor_type;location;lat;lon;timestamp;P1;durP1;ratioP1;P2;durP2;ratioP2
34064;SDS011;20339;49.754;20.158;2023-04-24T00:00:51;5.70;;;4.40;;
34064;SDS011;20339;49.754;20.158;2023-04-24T00:03:27;6.40;;;3.60;;
34064;SDS011;20339;49.754;20.158;2023-04-24T00:05:58;6.40;;;4.70;;
34064;SDS011;20339;49.754;20.158;2023-04-24T00:08:30;6.90;;;4.80;;
34064;SDS011;20339;49.754;20.158;2023-04-24T00:11:01;6.40;;;5.00;;
34064;SDS011;20339;49.754;20.158;2023-04-24T00:13:32;6.80;;;4.40;;
34064;SDS011;20339;49.754;20.158;2023-04-24T00:16:03;6.80;;;4.80;;
34064;SDS011;20339;49.754;20.158;2023-04-24T00:18:34;6.40;;;4.90;;
34064;SDS011;20339;49.754;20.158;2023-04-24T00:21:06;5.70;;;4.20;;
34064;SDS011;20339;49.754;20.158;2023-04-24T00:23:36;6.50;;;4.20;;
34064;SDS011;20339;49.754;20.158;2023-04-24T00:26:09;6.80;;;4.50;;
34064;SDS011;20339;49.754;20.158;2023-04-24T00:28:39;7.60;;;5.20;;
34064;SDS011;20339;49.754;20.158;2023-04-24T00:31:10;6.70;;;4.40;;
34064;SDS011;20339;49.754;20.158;2023-04-24T00:33:41;6.90;;;4.50;;
34064;SDS011;20339;49.754;20.158;2023-04-24T00:36:12;7.50;;;4.90;;
34064;SDS011;20339;49.754;20.158;2023-04-24T00:38:43;7.10;;;4.60;;
34064;SDS011;20339;49.754;20.158;2023-04-24T00:41:14;6.40;;;5.00;;
34064;SDS011;20339;49.754;20.158;2023-04-24T00:43:45;5.50;;;4.40;;
34064;SDS011;20339;49.754;20.158;2023-04-24T00:46:16;8.40;;;4.90;;
34064;SDS011;20339;49.754;20.158;2023-04-24T00:48:48;6.80;;;4.90;;
34064;SDS011;20339;49.754;20.158;2023-04-24T00:51:19;7.20;;;5.20;;
34064;SDS011;20339;49.754;20.158;2023-04-24T00:53:52;8.20;;;4.70;;
34064;SDS011;20339;49.754;20.158;2023-04-24T00:56:23;7.20;;;5.30;;
34064;SDS011;20339;49.754;20.158;2023-04-24T00:58:54;6.80;;;5.20;;
34064;SDS011;20339;49.754;20.158;2023-04-24T01:01:27;6.00;;;4.40;;
34064;SDS011;20339;49.754;20.158;2023-04-24T01:03:58;7.60;;;4.60;;
34064;SDS011;20339;49.754;20.158;2023-04-24T01:06:30;6.90;;;4.00;;
34064;SDS011;20339;49.754;20.158;2023-04-24T01:09:01;6.30;;;4.40;;
34064;SDS011;20339;49.754;20.158;2023-04-24T01:11:32;5.80;;;4.20;;
34064;SDS011;20339;49.754;20.158;2023-04-24T01:14:04;9.20;;;4.80;;
34064;SDS011;20339;49.754;20.158;2023-04-24T01:16:35;6.30;;;4.20;;
34064;SDS011;20339;49.754;20.158;2023-04-24T01:19:07;6.60;;;4.40;;
34064;SDS011;20339;49.754;20.158;2023-04-24T01:21:38;5.90;;;3.90;;
34064;SDS011;20339;49.754;20.158;2023-04-24T01:24:11;7.40;;;4.70;;
34064;SDS011;20339;49.754;20.158;2023-04-24T01:26:42;6.20;;;4.50;;
34064;SDS011;20339;49.754;20.158;2023-04-24T01:29:13;5.70;;;4.30;;
34064;SDS011;20339;49.754;20.158;2023-04-24T01:31:44;8.10;;;4.40;;
34064;SDS011;20339;49.754;20.158;2023-04-24T01:34:15;9.30;;;5.00;;
34064;SDS011;20339;49.754;20.158;2023-04-24T01:36:46;6.00;;;4.60;;
34064;SDS011;20339;49.754;20.158;2023-04-24T01:39:20;6.10;;;4.40;;
34064;SDS011;20339;49.754;20.158;2023-04-24T01:41:53;5.40;;;4.30;;
34064;SDS011;20339;49.754;20.158;2023-04-24T01:44:24;5.70;;;4.60;;
34064;SDS011;20339;49.754;20.158;2023-04-24T01:46:56;6.10;;;4.80;;
34064;SDS011;20339;49.754;20.158;2023-04-24T01:49:29;8.40;;;4.60;;
34064;SDS011;20339;49.754;20.158;2023-04-24T01:52:00;6.70;;;4.80;;
34064;SDS011;20339;49.754;20.158;2023-04-24T01:54:31;5.90;;;4.20;;
34064;SDS011;20339;49.754;20.158;2023-04-24T01:57:02;6.90;;;4.50;;
34064;SDS011;20339;49.754;20.158;2023-04-24T01:59:33;6.80;;;4.50;;
34064;SDS011;20339;49.754;20.158;2023-04-24T02:02:04;8.30;;;4.60;;
34064;SDS011;20339;49.754;20.158;2023-04-24T02:04:35;6.90;;;4.50;;
34064;SDS011;20339;49.754;20.158;2023-04-24T02:07:06;4.80;;;3.90;;
34064;SDS011;20339;49.754;20.158;2023-04-24T02:09:37;9.30;;;5.00;;
34064;SDS011;20339;49.754;20.158;2023-04-24T02:12:08;8.40;;;4.70;;
34064;SDS011;20339;49.754;20.158;2023-04-24T02:14:39;8.10;;;5.40;;
34064;SDS011;20339;49.754;20.158;2023-04-24T02:17:10;7.00;;;5.00;;
34064;SDS011;20339;49.754;20.158;2023-04-24T02:19:43;5.60;;;4.30;;
34064;SDS011;20339;49.754;20.158;2023-04-24T02:22:14;7.10;;;4.60;;
34064;SDS011;20339;49.754;20.158;2023-04-24T02:24:45;6.70;;;4.60;;
34064;SDS011;20339;49.754;20.158;2023-04-24T02:27:16;6.90;;;4.90;;
34064;SDS011;20339;49.754;20.158;2023-04-24T02:29:47;8.20;;;4.40;;
34064;SDS011;20339;49.754;20.158;2023-04-24T02:32:17;6.00;;;4.90;;
34064;SDS011;20339;49.754;20.158;2023-04-24T02:34:48;5.70;;;4.70;;
34064;SDS011;20339;49.754;20.158;2023-04-24T02:37:19;6.20;;;4.30;;
34064;SDS011;20339;49.754;20.158;2023-04-24T02:39:50;7.30;;;4.50;;
34064;SDS011;20339;49.754;20.158;2023-04-24T02:42:21;7.80;;;4.60;;
34064;SDS011;20339;49.754;20.158;2023-04-24T02:44:52;7.10;;;4.80;;
34064;SDS011;20339;49.754;20.158;2023-04-24T02:47:23;5.60;;;4.40;;
34064;SDS011;20339;49.754;20.158;2023-04-24T02:49:53;7.70;;;4.30;;
34064;SDS011;20339;49.754;20.158;2023-04-24T02:52:24;5.90;;;5.10;;
34064;SDS011;20339;49.754;20.158;2023-04-24T02:54:55;6.20;;;4.80;;
34064;SDS011;20339;49.754;20.158;2023-04-24T02:57:26;6.50;;;4.10;;
34064;SDS011;20339;49.754;20.158;2023-04-24T02:59:58;6.70;;;4.50;;
34064;SDS011;20339;49.754;20.158;2023-04-24T03:02:29;5.40;;;4.80;;
34064;SDS011;20339;49.754;20.158;2023-04-24T03:05:00;6.90;;;4.70;;
34064;SDS011;20339;49.754;20.158;2023-04-24T03:07:32;6.60;;;5.40;;
34064;SDS011;20339;49.754;20.158;2023-04-24T03:10:03;6.10;;;4.20;;
34064;SDS011;20339;49.754;20.158;2023-04-24T03:12:37;5.50;;;4.30;;
34064;SDS011;20339;49.754;20.158;2023-04-24T03:15:09;7.90;;;5.00;;
34064;SDS011;20339;49.754;20.158;2023-04-24T03:17:40;5.80;;;4.70;;
34064;SDS011;20339;49.754;20.158;2023-04-24T03:20:12;6.60;;;4.60;;
34064;SDS011;20339;49.754;20.158;2023-04-24T03:22:43;7.40;;;4.90;;
34064;SDS011;20339;49.754;20.158;2023-04-24T03:25:14;6.30;;;4.50;;
34064;SDS011;20339;49.754;20.158;2023-04-24T03:27:45;6.80;;;4.80;;
34064;SDS011;20339;49.754;20.158;2023-04-24T03:30:16;6.10;;;4.50;;
34064;SDS011;20339;49.754;20.158;2023-04-24T03:32:47;5.90;;;4.40;;
34064;SDS011;20339;49.754;20.158;2023-04-24T03:35:18;5.60;;;4.10;;
34064;SDS011;20339;49.754;20.158;2023-04-24T03:37:49;5.20;;;4.10;;
34064;SDS011;20339;49.754;20.158;2023-04-24T03:40:20;8.10;;;4.70;;
34064;SDS011;20339;49.754;20.158;2023-04-24T03:42:53;5.50;;;4.50;;
34064;SDS011;20339;49.754;20.158;2023-04-24T03:45:24;7.20;;;4.70;;
34064;SDS011;20339;49.754;20.158;2023-04-24T03:47:55;4.70;;;4.10;;
34064;SDS011;20339;49.754;20.158;2023-04-24T03:50:26;6.60;;;4.80;;
34064;SDS011;20339;49.754;20.158;2023-04-24T03:52:57;5.20;;;4.00;;
34064;SDS011;20339;49.754;20.158;2023-04-24T03:55:28;5.70;;;4.40;;
34064;SDS011;20339;49.754;20.158;2023-04-24T03:57:59;6.10;;;4.50;;
34064;SDS011;20339;49.754;20.158;2023-04-24T04:00:30;5.50;;;4.10;;
34064;SDS011;20339;49.754;20.158;2023-04-24T04:03:02;6.10;;;4.30;;
34064;SDS011;20339;49.754;20.158;2023-04-24T04:05:33;6.60;;;4.20;;
34064;SDS011;20339;49.754;20.158;2023-04-24T04:08:04;6.10;;;4.40;;
34064;SDS011;20339;49.754;20.158;2023-04-24T04:10:35;4.60;;;3.70;;
34064;SDS011;20339;49.754;20.158;2023-04-24T04:13:08;4.80;;;4.20;;
34064;SDS011;20339;49.754;20.158;2023-04-24T04:15:39;5.90;;;4.30;;
34064;SDS011;20339;49.754;20.158;2023-04-24T04:18:10;6.40;;;5.50;;
34064;SDS011;20339;49.754;20.158;2023-04-24T04:20:41;5.20;;;4.30;;
34064;SDS011;20339;49.754;20.158;2023-04-24T04:23:12;4.60;;;4.10;;
34064;SDS011;20339;49.754;20.158;2023-04-24T04:25:43;7.00;;;4.30;;
34064;SDS011;20339;49.754;20.158;2023-04-24T04:28:14;5.50;;;4.20;;
34064;SDS011;20339;49.754;20.158;2023-04-24T04:30:48;6.90;;;5.20;;
34064;SDS011;20339;49.754;20.158;2023-04-24T04:33:21;7.30;;;4.90;;
34064;SDS011;20339;49.754;20.158;2023-04-24T04:35:53;6.80;;;4.60;;
34064;SDS011;20339;49.754;20.158;2023-04-24T04:38:24;6.90;;;4.50;;
34064;SDS011;20339;49.754;20.158;2023-04-24T04:40:57;5.20;;;4.50;;
34064;SDS011;20339;49.754;20.158;2023-04-24T04:43:28;6.20;;;4.20;;
34064;SDS011;20339;49.754;20.158;2023-04-24T04:46:01;4.90;;;4.00;;
34064;SDS011;20339;49.754;20.158;2023-04-24T04:48:33;5.10;;;3.80;;
34064;SDS011;20339;49.754;20.158;2023-04-24T04:51:06;7.80;;;4.30;;
34064;SDS011;20339;49.754;20.158;2023-04-24T04:53:36;5.70;;;3.90;;
34064;SDS011;20339;49.754;20.158;2023-04-24T04:56:07;7.90;;;3.90;;
34064;SDS011;20339;49.754;20.158;2023-04-24T04:58:38;7.00;;;3.90;;
34064;SDS011;20339;49.754;20.158;2023-04-24T05:01:09;5.70;;;3.90;;
34064;SDS011;20339;49.754;20.158;2023-04-24T05:03:40;4.40;;;3.90;;
34064;SDS011;20339;49.754;20.158;2023-04-24T05:06:11;7.60;;;3.90;;
34064;SDS011;20339;49.754;20.158;2023-04-24T05:08:43;5.00;;;3.90;;
34064;SDS011;20339;49.754;20.158;2023-04-24T05:11:14;6.30;;;4.30;;
34064;SDS011;20339;49.754;20.158;2023-04-24T05:13:45;5.10;;;4.00;;
34064;SDS011;20339;49.754;20.158;2023-04-24T05:16:16;4.70;;;4.10;;
34064;SDS011;20339;49.754;20.158;2023-04-24T05:18:47;4.00;;;3.60;;
34064;SDS011;20339;49.754;20.158;2023-04-24T05:21:17;5.50;;;3.70;;
34064;SDS011;20339;49.754;20.158;2023-04-24T05:23:49;7.10;;;3.90;;
34064;SDS011;20339;49.754;20.158;2023-04-24T05:26:20;4.10;;;3.60;;
34064;SDS011;20339;49.754;20.158;2023-04-24T05:28:51;3.90;;;3.30;;
34064;SDS011;20339;49.754;20.158;2023-04-24T05:31:22;4.00;;;3.30;;
34064;SDS011;20339;49.754;20.158;2023-04-24T05:33:53;3.50;;;3.10;;
34064;SDS011;20339;49.754;20.158;2023-04-24T05:36:26;4.10;;;3.00;;
34064;SDS011;20339;49.754;20.158;2023-04-24T05:38:58;5.40;;;3.50;;
34064;SDS011;20339;49.754;20.158;2023-04-24T05:41:29;4.80;;;3.10;;
34064;SDS011;20339;49.754;20.158;2023-04-24T05:44:00;3.10;;;2.80;;
34064;SDS011;20339;49.754;20.158;2023-04-24T05:46:31;3.90;;;3.00;;
34064;SDS011;20339;49.754;20.158;2023-04-24T05:49:02;4.40;;;3.10;;
34064;SDS011;20339;49.754;20.158;2023-04-24T05:51:34;3.20;;;2.90;;
34064;SDS011;20339;49.754;20.158;2023-04-24T05:54:04;5.20;;;2.60;;
34064;SDS011;20339;49.754;20.158;2023-04-24T05:56:35;4.10;;;2.90;;
34064;SDS011;20339;49.754;20.158;2023-04-24T05:59:06;3.90;;;3.20;;
34064;SDS011;20339;49.754;20.158;2023-04-24T06:01:38;4.30;;;3.50;;
34064;SDS011;20339;49.754;20.158;2023-04-24T06:04:09;3.20;;;2.70;;
34064;SDS011;20339;49.754;20.158;2023-04-24T06:06:41;6.70;;;2.90;;
34064;SDS011;20339;49.754;20.158;2023-04-24T06:09:12;3.80;;;3.10;;
34064;SDS011;20339;49.754;20.158;2023-04-24T06:11:44;4.20;;;2.60;;
34064;SDS011;20339;49.754;20.158;2023-04-24T06:14:15;3.10;;;2.80;;
34064;SDS011;20339;49.754;20.158;2023-04-24T06:16:46;4.20;;;3.00;;
34064;SDS011;20339;49.754;20.158;2023-04-24T06:19:18;3.30;;;2.60;;
34064;SDS011;20339;49.754;20.158;2023-04-24T06:21:49;4.30;;;2.60;;
34064;SDS011;20339;49.754;20.158;2023-04-24T06:24:20;2.70;;;2.40;;
34064;SDS011;20339;49.754;20.158;2023-04-24T06:26:51;3.30;;;3.00;;
34064;SDS011;20339;49.754;20.158;2023-04-24T06:29:22;4.60;;;2.80;;
34064;SDS011;20339;49.754;20.158;2023-04-24T06:31:53;3.30;;;2.70;;
34064;SDS011;20339;49.754;20.158;2023-04-24T06:34:24;3.70;;;3.00;;
34064;SDS011;20339;49.754;20.158;2023-04-24T06:36:58;4.30;;;2.80;;
34064;SDS011;20339;49.754;20.158;2023-04-24T06:39:29;4.10;;;2.70;;
34064;SDS011;20339;49.754;20.158;2023-04-24T06:42:00;2.90;;;2.60;;
34064;SDS011;20339;49.754;20.158;2023-04-24T06:44:31;2.90;;;2.70;;
34064;SDS011;20339;49.754;20.158;2023-04-24T06:47:08;4.40;;;2.70;;
34064;SDS011;20339;49.754;20.158;2023-04-24T06:49:41;2.70;;;2.50;;
34064;SDS011;20339;49.754;20.158;2023-04-24T06:52:12;3.10;;;2.20;;
34064;SDS011;20339;49.754;20.158;2023-04-24T06:54:43;2.50;;;2.30;;
34064;SDS011;20339;49.754;20.158;2023-04-24T06:57:14;2.90;;;2.60;;
34064;SDS011;20339;49.754;20.158;2023-04-24T06:59:46;2.60;;;2.40;;
34064;SDS011;20339;49.754;20.158;2023-04-24T07:02:17;3.30;;;2.50;;
34064;SDS011;20339;49.754;20.158;2023-04-24T07:04:48;3.40;;;2.50;;
34064;SDS011;20339;49.754;20.158;2023-04-24T07:07:20;3.00;;;2.50;;
34064;SDS011;20339;49.754;20.158;2023-04-24T07:09:51;3.30;;;2.40;;
34064;SDS011;20339;49.754;20.158;2023-04-24T07:12:24;2.50;;;2.20;;
34064;SDS011;20339;49.754;20.158;2023-04-24T07:15:00;2.70;;;2.40;;
34064;SDS011;20339;49.754;20.158;2023-04-24T07:17:32;2.50;;;2.20;;
34064;SDS011;20339;49.754;20.158;2023-04-24T07:20:04;2.70;;;2.50;;
34064;SDS011;20339;49.754;20.158;2023-04-24T07:22:38;2.30;;;2.10;;
34064;SDS011;20339;49.754;20.158;2023-04-24T07:25:09;2.70;;;2.30;;
34064;SDS011;20339;49.754;20.158;2023-04-24T07:27:40;2.40;;;2.10;;
34064;SDS011;20339;49.754;20.158;2023-04-24T07:30:12;4.30;;;2.20;;
34064;SDS011;20339;49.754;20.158;2023-04-24T07:32:43;3.00;;;2.10;;
34064;SDS011;20339;49.754;20.158;2023-04-24T07:35:14;3.40;;;2.40;;
34064;SDS011;20339;49.754;20.158;2023-04-24T07:37:47;4.30;;;2.40;;
34064;SDS011;20339;49.754;20.158;2023-04-24T07:40:18;3.60;;;2.30;;
34064;SDS011;20339;49.754;20.158;2023-04-24T07:42:50;2.50;;;2.10;;
34064;SDS011;20339;49.754;20.158;2023-04-24T07:45:21;2.90;;;1.90;;
34064;SDS011;20339;49.754;20.158;2023-04-24T07:47:54;4.40;;;2.20;;
34064;SDS011;20339;49.754;20.158;2023-04-24T07:50:25;3.80;;;2.10;;
34064;SDS011;20339;49.754;20.158;2023-04-24T07:52:56;2.40;;;2.20;;
34064;SDS011;20339;49.754;20.158;2023-04-24T07:55:27;3.00;;;2.30;;
34064;SDS011;20339;49.754;20.158;2023-04-24T07:57:59;2.70;;;2.50;;
34064;SDS011;20339;49.754;20.158;2023-04-24T08:00:30;4.60;;;2.70;;
34064;SDS011;20339;49.754;20.158;2023-04-24T08:03:02;3.60;;;2.20;;
34064;SDS011;20339;49.754;20.158;2023-04-24T08:05:33;4.40;;;2.70;;
34064;SDS011;20339;49.754;20.158;2023-04-24T08:08:04;3.70;;;2.30;;
34064;SDS011;20339;49.754;20.158;2023-04-24T08:10:35;3.40;;;2.40;;
34064;SDS011;20339;49.754;20.158;2023-04-24T08:13:06;3.40;;;2.20;;
34064;SDS011;20339;49.754;20.158;2023-04-24T08:15:39;3.50;;;3.20;;
34064;SDS011;20339;49.754;20.158;2023-04-24T08:18:10;2.60;;;2.30;;
34064;SDS011;20339;49.754;20.158;2023-04-24T08:20:44;4.30;;;2.70;;
34064;SDS011;20339;49.754;20.158;2023-04-24T08:23:15;3.10;;;2.30;;
34064;SDS011;20339;49.754;20.158;2023-04-24T08:28:48;4.20;;;3.00;;
34064;SDS011;20339;49.754;20.158;2023-04-24T08:31:19;4.00;;;2.30;;
34064;SDS011;20339;49.754;20.158;2023-04-24T08:33:50;2.50;;;2.30;;
34064;SDS011;20339;49.754;20.158;2023-04-24T08:36:21;2.60;;;2.40;;
34064;SDS011;20339;49.754;20.158;2023-04-24T08:38:52;3.70;;;2.50;;
34064;SDS011;20339;49.754;20.158;2023-04-24T08:41:26;2.50;;;2.30;;
34064;SDS011;20339;49.754;20.158;2023-04-24T08:43:58;2.70;;;2.20;;
34064;SDS011;20339;49.754;20.158;2023-04-24T08:46:31;2.80;;;2.20;;
34064;SDS011;20339;49.754;20.158;2023-04-24T08:49:02;8.10;;;2.70;;
34064;SDS011;20339;49.754;20.158;2023-04-24T08:51:35;4.40;;;2.50;;
34064;SDS011;20339;49.754;20.158;2023-04-24T08:54:08;3.50;;;2.60;;
34064;SDS011;20339;49.754;20.158;2023-04-24T08:56:41;3.90;;;2.40;;
34064;SDS011;20339;49.754;20.158;2023-04-24T08:59:17;4.40;;;2.20;;
34064;SDS011;20339;49.754;20.158;2023-04-24T09:01:50;3.60;;;2.30;;
34064;SDS011;20339;49.754;20.158;2023-04-24T09:04:24;4.20;;;2.40;;
34064;SDS011;20339;49.754;20.158;2023-04-24T09:06:57;3.70;;;2.70;;
34064;SDS011;20339;49.754;20.158;2023-04-24T09:09:29;4.40;;;2.60;;
34064;SDS011;20339;49.754;20.158;2023-04-24T09:12:01;3.50;;;2.70;;
34064;SDS011;20339;49.754;20.158;2023-04-24T09:14:33;4.70;;;2.70;;
34064;SDS011;20339;49.754;20.158;2023-04-24T09:17:07;4.00;;;2.80;;
34064;SDS011;20339;49.754;20.158;2023-04-24T09:19:38;2.80;;;2.40;;
34064;SDS011;20339;49.754;20.158;2023-04-24T09:22:09;4.70;;;2.50;;
34064;SDS011;20339;49.754;20.158;2023-04-24T09:24:41;2.80;;;2.50;;
34064;SDS011;20339;49.754;20.158;2023-04-24T09:27:14;3.60;;;3.00;;
34064;SDS011;20339;49.754;20.158;2023-04-24T09:29:54;5.40;;;2.80;;
34064;SDS011;20339;49.754;20.158;2023-04-24T09:32:26;4.90;;;2.80;;
34064;SDS011;20339;49.754;20.158;2023-04-24T09:35:11;3.40;;;2.70;;
34064;SDS011;20339;49.754;20.158;2023-04-24T09:37:43;4.00;;;3.20;;
34064;SDS011;20339;49.754;20.158;2023-04-24T09:40:17;5.80;;;2.90;;
34064;SDS011;20339;49.754;20.158;2023-04-24T09:42:53;5.10;;;2.80;;
34064;SDS011;20339;49.754;20.158;2023-04-24T09:45:28;5.60;;;3.50;;
34064;SDS011;20339;49.754;20.158;2023-04-24T09:48:04;3.70;;;3.00;;
34064;SDS011;20339;49.754;20.158;2023-04-24T09:50:40;5.50;;;3.00;;
34064;SDS011;20339;49.754;20.158;2023-04-24T09:55:52;4.40;;;3.30;;
34064;SDS011;20339;49.754;20.158;2023-04-24T09:58:31;3.20;;;2.40;;
34064;SDS011;20339;49.754;20.158;2023-04-24T10:01:04;5.50;;;2.60;;
34064;SDS011;20339;49.754;20.158;2023-04-24T10:03:35;3.90;;;2.90;;
34064;SDS011;20339;49.754;20.158;2023-04-24T10:06:07;3.20;;;2.80;;
34064;SDS011;20339;49.754;20.158;2023-04-24T10:08:41;5.20;;;2.80;;
34064;SDS011;20339;49.754;20.158;2023-04-24T10:11:14;5.00;;;3.00;;
34064;SDS011;20339;49.754;20.158;2023-04-24T10:13:51;4.70;;;2.90;;
34064;SDS011;20339;49.754;20.158;2023-04-24T10:16:23;3.90;;;3.00;;
34064;SDS011;20339;49.754;20.158;2023-04-24T10:18:56;2.90;;;2.60;;
34064;SDS011;20339;49.754;20.158;2023-04-24T10:21:31;5.50;;;3.00;;
34064;SDS011;20339;49.754;20.158;2023-04-24T10:24:03;6.20;;;3.60;;
34064;SDS011;20339;49.754;20.158;2023-04-24T10:26:35;5.60;;;3.50;;
34064;SDS011;20339;49.754;20.158;2023-04-24T10:29:07;5.00;;;3.40;;
34064;SDS011;20339;49.754;20.158;2023-04-24T10:31:43;4.30;;;3.50;;
34064;SDS011;20339;49.754;20.158;2023-04-24T10:34:14;4.50;;;3.30;;
34064;SDS011;20339;49.754;20.158;2023-04-24T10:36:49;6.60;;;3.20;;
34064;SDS011;20339;49.754;20.158;2023-04-24T10:39:21;4.80;;;3.30;;
34064;SDS011;20339;49.754;20.158;2023-04-24T10:41:53;4.60;;;2.90;;
34064;SDS011;20339;49.754;20.158;2023-04-24T10:44:27;3.80;;;3.30;;
34064;SDS011;20339;49.754;20.158;2023-04-24T10:47:07;4.70;;;3.20;;
34064;SDS011;20339;49.754;20.158;2023-04-24T10:49:43;3.60;;;3.00;;
34064;SDS011;20339;49.754;20.158;2023-04-24T10:52:14;4.20;;;2.60;;
34064;SDS011;20339;49.754;20.158;2023-04-24T10:54:45;4.30;;;3.00;;
34064;SDS011;20339;49.754;20.158;2023-04-24T10:57:29;4.50;;;2.80;;
34064;SDS011;20339;49.754;20.158;2023-04-24T11:00:16;3.60;;;2.90;;
34064;SDS011;20339;49.754;20.158;2023-04-24T11:02:50;5.40;;;3.20;;
34064;SDS011;20339;49.754;20.158;2023-04-24T11:05:48;4.50;;;3.30;;
34064;SDS011;20339;49.754;20.158;2023-04-24T11:08:25;4.00;;;2.70;;
34064;SDS011;20339;49.754;20.158;2023-04-24T11:10:59;3.70;;;3.20;;
34064;SDS011;20339;49.754;20.158;2023-04-24T11:16:43;5.30;;;3.10;;
34064;SDS011;20339;49.754;20.158;2023-04-24T11:19:22;5.60;;;3.40;;
34064;SDS011;20339;49.754;20.158;2023-04-24T11:21:57;4.10;;;3.60;;
34064;SDS011;20339;49.754;20.158;2023-04-24T11:24:31;5.30;;;3.30;;
34064;SDS011;20339;49.754;20.158;2023-04-24T11:27:11;4.40;;;3.20;;
34064;SDS011;20339;49.754;20.158;2023-04-24T11:29:46;5.80;;;3.30;;
34064;SDS011;20339;49.754;20.158;2023-04-24T11:32:19;4.00;;;3.30;;
34064;SDS011;20339;49.754;20.158;2023-04-24T11:34:56;7.00;;;3.80;;
34064;SDS011;20339;49.754;20.158;2023-04-24T11:37:28;5.10;;;3.50;;
34064;SDS011;20339;49.754;20.158;2023-04-24T11:40:05;5.50;;;3.80;;
34064;SDS011;20339;49.754;20.158;2023-04-24T11:42:38;4.80;;;3.60;;
34064;SDS011;20339;49.754;20.158;2023-04-24T11:45:11;5.80;;;3.50;;
34064;SDS011;20339;49.754;20.158;2023-04-24T11:47:43;5.80;;;3.60;;
34064;SDS011;20339;49.754;20.158;2023-04-24T11:50:16;7.30;;;3.90;;
34064;SDS011;20339;49.754;20.158;2023-04-24T11:52:52;5.10;;;3.40;;
34064;SDS011;20339;49.754;20.158;2023-04-24T11:55:25;4.40;;;3.40;;
34064;SDS011;20339;49.754;20.158;2023-04-24T11:57:58;5.80;;;4.10;;
34064;SDS011;20339;49.754;20.158;2023-04-24T12:00:30;3.60;;;3.30;;
34064;SDS011;20339;49.754;20.158;2023-04-24T12:03:07;5.60;;;4.10;;
34064;SDS011;20339;49.754;20.158;2023-04-24T12:05:40;5.10;;;3.80;;
34064;SDS011;20339;49.754;20.158;2023-04-24T12:08:12;6.20;;;3.50;;
34064;SDS011;20339;49.754;20.158;2023-04-24T12:11:01;6.00;;;4.60;;
34064;SDS011;20339;49.754;20.158;2023-04-24T12:13:35;5.90;;;3.90;;
34064;SDS011;20339;49.754;20.158;2023-04-24T12:16:06;6.10;;;3.80;;
34064;SDS011;20339;49.754;20.158;2023-04-24T12:18:42;5.00;;;3.80;;
34064;SDS011;20339;49.754;20.158;2023-04-24T12:21:18;6.90;;;3.80;;
34064;SDS011;20339;49.754;20.158;2023-04-24T12:23:50;4.50;;;3.50;;
34064;SDS011;20339;49.754;20.158;2023-04-24T12:26:23;6.00;;;4.00;;
34064;SDS011;20339;49.754;20.158;2023-04-24T12:29:01;7.40;;;3.90;;
34064;SDS011;20339;49.754;20.158;2023-04-24T12:31:34;3.90;;;3.40;;
34064;SDS011;20339;49.754;20.158;2023-04-24T12:34:05;7.00;;;4.50;;
34064;SDS011;20339;49.754;20.158;2023-04-24T12:36:49;6.00;;;4.90;;
34064;SDS011;20339;49.754;20.158;2023-04-24T12:39:20;5.90;;;4.40;;
34064;SDS011;20339;49.754;20.158;2023-04-24T12:41:57;6.00;;;4.40;;
34064;SDS011;20339;49.754;20.158;2023-04-24T12:44:32;5.10;;;4.30;;
34064;SDS011;20339;49.754;20.158;2023-04-24T12:47:04;5.60;;;3.90;;
34064;SDS011;20339;49.754;20.158;2023-04-24T12:49:39;5.60;;;4.50;;
34064;SDS011;20339;49.754;20.158;2023-04-24T12:52:09;7.20;;;5.10;;
34064;SDS011;20339;49.754;20.158;2023-04-24T12:54:40;5.70;;;4.80;;
34064;SDS011;20339;49.754;20.158;2023-04-24T12:57:11;7.30;;;4.90;;
34064;SDS011;20339;49.754;20.158;2023-04-24T12:59:43;6.90;;;4.60;;
34064;SDS011;20339;49.754;20.158;2023-04-24T13:02:14;7.50;;;4.30;;
34064;SDS011;20339;49.754;20.158;2023-04-24T13:04:49;5.80;;;3.90;;
34064;SDS011;20339;49.754;20.158;2023-04-24T13:07:20;4.30;;;3.70;;
34064;SDS011;20339;49.754;20.158;2023-04-24T13:09:51;5.40;;;3.70;;
34064;SDS011;20339;49.754;20.158;2023-04-24T13:12:23;4.10;;;3.40;;
34064;SDS011;20339;49.754;20.158;2023-04-24T13:14:57;4.90;;;3.70;;
34064;SDS011;20339;49.754;20.158;2023-04-24T13:17:28;4.70;;;3.20;;
34064;SDS011;20339;49.754;20.158;2023-04-24T13:19:59;5.50;;;3.80;;
34064;SDS011;20339;49.754;20.158;2023-04-24T13:22:30;5.60;;;3.80;;
34064;SDS011;20339;49.754;20.158;2023-04-24T13:25:01;4.70;;;3.40;;
34064;SDS011;20339;49.754;20.158;2023-04-24T13:27:37;3.90;;;3.60;;
34064;SDS011;20339;49.754;20.158;2023-04-24T13:30:09;4.20;;;3.10;;
34064;SDS011;20339;49.754;20.158;2023-04-24T13:32:41;3.70;;;2.80;;
34064;SDS011;20339;49.754;20.158;2023-04-24T13:35:14;4.50;;;3.30;;
34064;SDS011;20339;49.754;20.158;2023-04-24T13:37:46;6.50;;;3.90;;
34064;SDS011;20339;49.754;20.158;2023-04-24T13:40:17;4.20;;;3.60;;
34064;SDS011;20339;49.754;20.158;2023-04-24T13:42:48;4.10;;;3.20;;
34064;SDS011;20339;49.754;20.158;2023-04-24T13:45:20;6.20;;;3.50;;
34064;SDS011;20339;49.754;20.158;2023-04-24T13:47:51;6.00;;;4.10;;
34064;SDS011;20339;49.754;20.158;2023-04-24T13:50:23;4.30;;;3.60;;
34064;SDS011;20339;49.754;20.158;2023-04-24T13:52:56;6.10;;;3.80;;
34064;SDS011;20339;49.754;20.158;2023-04-24T13:55:29;4.40;;;3.20;;
34064;SDS011;20339;49.754;20.158;2023-04-24T13:58:00;3.40;;;3.10;;
34064;SDS011;20339;49.754;20.158;2023-04-24T14:00:31;4.00;;;3.10;;
34064;SDS011;20339;49.754;20.158;2023-04-24T14:03:02;4.40;;;3.80;;
34064;SDS011;20339;49.754;20.158;2023-04-24T14:05:34;3.60;;;3.30;;
34064;SDS011;20339;49.754;20.158;2023-04-24T14:08:05;3.30;;;3.00;;
34064;SDS011;20339;49.754;20.158;2023-04-24T14:10:36;3.50;;;3.20;;
34064;SDS011;20339;49.754;20.158;2023-04-24T14:13:07;4.60;;;3.10;;
34064;SDS011;20339;49.754;20.158;2023-04-24T14:15:39;4.00;;;2.90;;
34064;SDS011;20339;49.754;20.158;2023-04-24T14:18:10;4.80;;;2.90;;
34064;SDS011;20339;49.754;20.158;2023-04-24T14:20:41;4.40;;;3.30;;
34064;SDS011;20339;49.754;20.158;2023-04-24T14:23:15;3.70;;;3.00;;
34064;SDS011;20339;49.754;20.158;2023-04-24T14:25:46;3.50;;;3.20;;
34064;SDS011;20339;49.754;20.158;2023-04-24T14:28:20;3.80;;;3.20;;
34064;SDS011;20339;49.754;20.158;2023-04-24T14:30:51;5.20;;;4.30;;
34064;SDS011;20339;49.754;20.158;2023-04-24T14:33:22;6.90;;;4.00;;
34064;SDS011;20339;49.754;20.158;2023-04-24T14:35:53;4.40;;;3.20;;
34064;SDS011;20339;49.754;20.158;2023-04-24T14:38:24;5.20;;;4.30;;
34064;SDS011;20339;49.754;20.158;2023-04-24T14:40:55;5.10;;;4.20;;
34064;SDS011;20339;49.754;20.158;2023-04-24T14:43:26;4.50;;;4.10;;
34064;SDS011;20339;49.754;20.158;2023-04-24T14:45:57;5.40;;;3.90;;
34064;SDS011;20339;49.754;20.158;2023-04-24T14:48:28;6.30;;;4.70;;
34064;SDS011;20339;49.754;20.158;2023-04-24T14:51:00;6.50;;;4.80;;
34064;SDS011;20339;49.754;20.158;2023-04-24T14:53:31;7.20;;;5.40;;
34064;SDS011;20339;49.754;20.158;2023-04-24T14:56:03;7.90;;;5.50;;
34064;SDS011;20339;49.754;20.158;2023-04-24T14:58:34;7.30;;;5.00;;
34064;SDS011;20339;49.754;20.158;2023-04-24T15:01:05;7.20;;;5.70;;
34064;SDS011;20339;49.754;20.158;2023-04-24T15:03:39;6.30;;;5.60;;
34064;SDS011;20339;49.754;20.158;2023-04-24T15:06:11;6.60;;;5.80;;
34064;SDS011;20339;49.754;20.158;2023-04-24T15:08:42;5.20;;;3.80;;
34064;SDS011;20339;49.754;20.158;2023-04-24T15:11:13;5.00;;;4.50;;